sensor_id;sensor_type;location;lat;lon;timestamp;pressure;altitude;pressure_sealevel;temperature;humidity
39891;BME280;25564;53.312;9.790;2022-07-06T00:01:25;101544.38;;;15.22;66.69
39891;BME280;25564;53.312;9.790;2022-07-06T00:03:56;101536.34;;;15.22;66.72
39891;BME280;25564;53.312;9.790;2022-07-06T00:06:28;101541.63;;;15.25;66.53
39891;BME280;25564;53.312;9.790;2022-07-06T00:09:00;101537.13;;;15.27;66.74
39891;BME280;25564;53.312;9.790;2022-07-06T00:11:31;101542.41;;;15.30;66.60
39891;BME280;25564;53.312;9.790;2022-07-06T00:14:03;101538.81;;;15.31;66.51
39891;BME280;25564;53.312;9.790;2022-07-06T00:16:35;101542.31;;;15.33;66.62
39891;BME280;25564;53.312;9.790;2022-07-06T00:19:07;101543.13;;;15.37;66.48
39891;BME280;25564;53.312;9.790;2022-07-06T00:21:38;101541.38;;;15.36;66.62
39891;BME280;25564;53.312;9.790;2022-07-06T00:24:10;101540.50;;;15.35;66.71
39891;BME280;25564;53.312;9.790;2022-07-06T00:26:41;101540.59;;;15.31;66.83
39891;BME280;25564;53.312;9.790;2022-07-06T00:29:12;101546.97;;;15.25;66.69
39891;BME280;25564;53.312;9.790;2022-07-06T00:31:44;101541.66;;;15.24;67.01
39891;BME280;25564;53.312;9.790;2022-07-06T00:34:15;101535.47;;;15.22;67.11
39891;BME280;25564;53.312;9.790;2022-07-06T00:36:46;101537.28;;;15.21;67.28
39891;BME280;25564;53.312;9.790;2022-07-06T00:39:18;101543.50;;;15.22;66.89
39891;BME280;25564;53.312;9.790;2022-07-06T00:41:50;101543.50;;;15.22;67.29
39891;BME280;25564;53.312;9.790;2022-07-06T00:44:21;101547.09;;;15.21;67.37
39891;BME280;25564;53.312;9.790;2022-07-06T00:46:53;101542.69;;;15.18;67.50
39891;BME280;25564;53.312;9.790;2022-07-06T00:49:24;101542.69;;;15.18;67.43
39891;BME280;25564;53.312;9.790;2022-07-06T00:52:14;101538.28;;;15.16;67.44
39891;BME280;25564;53.312;9.790;2022-07-06T00:54:46;101536.38;;;15.21;67.53
39891;BME280;25564;53.312;9.790;2022-07-06T00:57:18;101534.56;;;15.23;67.11
39891;BME280;25564;53.312;9.790;2022-07-06T00:59:49;101539.03;;;15.22;67.66
39891;BME280;25564;53.312;9.790;2022-07-06T01:02:21;101539.00;;;15.24;67.50
39891;BME280;25564;53.312;9.790;2022-07-06T01:04:53;101539.84;;;15.26;67.54
39891;BME280;25564;53.312;9.790;2022-07-06T01:07:25;101546.94;;;15.27;67.53
39891;BME280;25564;53.312;9.790;2022-07-06T01:09:57;101544.28;;;15.27;67.40
39891;BME280;25564;53.312;9.790;2022-07-06T01:12:28;101548.72;;;15.26;67.54
39891;BME280;25564;53.312;9.790;2022-07-06T01:15:00;101547.91;;;15.24;67.45
39891;BME280;25564;53.312;9.790;2022-07-06T01:17:33;101529.44;;;15.14;68.21
39891;BME280;25564;53.312;9.790;2022-07-06T01:20:18;101543.50;;;15.22;68.05
39891;BME280;25564;53.312;9.790;2022-07-06T01:22:51;101537.28;;;15.21;67.80
39891;BME280;25564;53.312;9.790;2022-07-06T01:25:23;101542.66;;;15.20;67.86
39891;BME280;25564;53.312;9.790;2022-07-06T01:27:54;101545.31;;;15.20;67.71
39891;BME280;25564;53.312;9.790;2022-07-06T01:30:25;101546.19;;;15.20;68.07
39891;BME280;25564;53.312;9.790;2022-07-06T01:32:57;101548.91;;;15.19;68.03
39891;BME280;25564;53.312;9.790;2022-07-06T01:35:31;101533.81;;;15.16;68.16
39891;BME280;25564;53.312;9.790;2022-07-06T01:38:06;101526.78;;;15.12;68.16
39891;BME280;25564;53.312;9.790;2022-07-06T01:40:37;101539.03;;;15.22;68.21
39891;BME280;25564;53.312;9.790;2022-07-06T01:43:09;101530.09;;;15.23;68.22
39891;BME280;25564;53.312;9.790;2022-07-06T01:45:40;101538.13;;;15.23;68.15
39891;BME280;25564;53.312;9.790;2022-07-06T01:48:12;101525.66;;;15.22;68.21
39891;BME280;25564;53.312;9.790;2022-07-06T01:50:43;101522.09;;;15.22;68.18
39891;BME280;25564;53.312;9.790;2022-07-06T01:53:14;101520.41;;;15.18;68.32
39891;BME280;25564;53.312;9.790;2022-07-06T01:55:46;101533.75;;;15.19;68.21
39891;BME280;25564;53.312;9.790;2022-07-06T01:58:17;101526.72;;;15.15;68.37
39891;BME280;25564;53.312;9.790;2022-07-06T02:00:49;101533.09;;;15.10;68.63
39891;BME280;25564;53.312;9.790;2022-07-06T02:03:21;101519.06;;;15.00;68.65
39891;BME280;25564;53.312;9.790;2022-07-06T02:05:53;101520.91;;;14.96;68.68
39891;BME280;25564;53.312;9.790;2022-07-06T02:08:24;101534.91;;;15.08;68.67
39891;BME280;25564;53.312;9.790;2022-07-06T02:10:56;101528.72;;;15.05;68.61
39891;BME280;25564;53.312;9.790;2022-07-06T02:13:28;101523.47;;;15.01;68.79
39891;BME280;25564;53.312;9.790;2022-07-06T02:16:00;101526.25;;;14.96;69.02
39891;BME280;25564;53.312;9.790;2022-07-06T02:18:31;101529.03;;;14.92;68.90
39891;BME280;25564;53.312;9.790;2022-07-06T02:21:04;101501.69;;;14.79;69.13
39891;BME280;25564;53.312;9.790;2022-07-06T02:23:35;101515.84;;;14.84;69.14
39891;BME280;25564;53.312;9.790;2022-07-06T02:26:07;101525.47;;;14.91;69.65
39891;BME280;25564;53.312;9.790;2022-07-06T02:28:38;101521.97;;;14.89;69.49
39891;BME280;25564;53.312;9.790;2022-07-06T02:31:10;101523.75;;;14.89;69.26
39891;BME280;25564;53.312;9.790;2022-07-06T02:33:44;101520.28;;;14.85;69.23
39891;BME280;25564;53.312;9.790;2022-07-06T02:36:15;101515.00;;;14.82;69.20
39891;BME280;25564;53.312;9.790;2022-07-06T02:38:47;101516.72;;;14.85;69.84
39891;BME280;25564;53.312;9.790;2022-07-06T02:41:18;101517.63;;;14.84;69.53
39891;BME280;25564;53.312;9.790;2022-07-06T02:43:49;101521.06;;;14.90;69.36
39891;BME280;25564;53.312;9.790;2022-07-06T02:46:21;101520.13;;;14.91;69.73
39891;BME280;25564;53.312;9.790;2022-07-06T02:48:52;101520.09;;;14.93;69.58
39891;BME280;25564;53.312;9.790;2022-07-06T02:51:23;101520.97;;;14.93;69.57
39891;BME280;25564;53.312;9.790;2022-07-06T02:53:55;101528.97;;;14.95;69.96
39891;BME280;25564;53.312;9.790;2022-07-06T02:56:26;101529.84;;;14.95;69.59
39891;BME280;25564;53.312;9.790;2022-07-06T02:58:59;101517.41;;;14.94;69.85
39891;BME280;25564;53.312;9.790;2022-07-06T03:01:30;101531.59;;;14.96;69.90
39891;BME280;25564;53.312;9.790;2022-07-06T03:04:02;101529.78;;;14.98;69.75
39891;BME280;25564;53.312;9.790;2022-07-06T03:06:33;101529.78;;;14.98;69.78
39891;BME280;25564;53.312;9.790;2022-07-06T03:09:04;101535.13;;;14.98;69.77
39891;BME280;25564;53.312;9.790;2022-07-06T03:11:36;101532.44;;;14.98;69.88
39891;BME280;25564;53.312;9.790;2022-07-06T03:14:07;101530.69;;;14.97;70.05
39891;BME280;25564;53.312;9.790;2022-07-06T03:16:39;101515.75;;;14.89;70.12
39891;BME280;25564;53.312;9.790;2022-07-06T03:19:10;101534.31;;;14.95;70.14
39891;BME280;25564;53.312;9.790;2022-07-06T03:21:42;101537.69;;;15.03;69.93
39891;BME280;25564;53.312;9.790;2022-07-06T03:24:13;101543.88;;;15.05;70.09
39891;BME280;25564;53.312;9.790;2022-07-06T03:26:44;101548.25;;;15.09;69.96
39891;BME280;25564;53.312;9.790;2022-07-06T03:29:15;101534.91;;;15.08;70.23
39891;BME280;25564;53.312;9.790;2022-07-06T03:31:47;101533.03;;;15.11;70.10
39891;BME280;25564;53.312;9.790;2022-07-06T03:34:19;101541.81;;;15.18;69.92
39891;BME280;25564;53.312;9.790;2022-07-06T03:36:50;101540.81;;;15.22;69.95
39891;BME280;25564;53.312;9.790;2022-07-06T03:39:21;101544.31;;;15.25;69.77
39891;BME280;25564;53.312;9.790;2022-07-06T03:41:53;101540.63;;;15.29;70.08
39891;BME280;25564;53.312;9.790;2022-07-06T03:44:24;101547.75;;;15.30;69.75
39891;BME280;25564;53.312;9.790;2022-07-06T03:46:55;101536.09;;;15.33;69.67
39891;BME280;25564;53.312;9.790;2022-07-06T03:49:27;101541.38;;;15.36;69.98
39891;BME280;25564;53.312;9.790;2022-07-06T03:51:58;101541.31;;;15.39;69.64
39891;BME280;25564;53.312;9.790;2022-07-06T03:54:30;101537.72;;;15.40;69.71
39891;BME280;25564;53.312;9.790;2022-07-06T03:57:02;101543.88;;;15.44;69.89
39891;BME280;25564;53.312;9.790;2022-07-06T03:59:33;101540.28;;;15.45;69.76
39891;BME280;25564;53.312;9.790;2022-07-06T04:02:05;101550.09;;;15.44;69.94
39891;BME280;25564;53.312;9.790;2022-07-06T04:04:36;101545.59;;;15.46;70.04
39891;BME280;25564;53.312;9.790;2022-07-06T04:07:08;101531.44;;;15.41;70.11
39891;BME280;25564;53.312;9.790;2022-07-06T04:09:39;101551.63;;;15.54;70.14
39891;BME280;25564;53.312;9.790;2022-07-06T04:12:10;101547.13;;;15.58;69.78
39891;BME280;25564;53.312;9.790;2022-07-06T04:14:47;101542.69;;;15.55;69.99
39891;BME280;25564;53.312;9.790;2022-07-06T04:17:18;101556.75;;;15.63;69.96
39891;BME280;25564;53.312;9.790;2022-07-06T04:20:09;101551.31;;;15.66;69.94
39891;BME280;25564;53.312;9.790;2022-07-06T04:22:40;101552.13;;;15.70;70.10
39891;BME280;25564;53.312;9.790;2022-07-06T04:25:12;101544.81;;;15.77;69.86
39891;BME280;25564;53.312;9.790;2022-07-06T04:27:43;101544.69;;;15.81;69.97
39891;BME280;25564;53.312;9.790;2022-07-06T04:30:15;101543.69;;;15.85;69.92
39891;BME280;25564;53.312;9.790;2022-07-06T04:32:47;101541.81;;;15.89;69.84
39891;BME280;25564;53.312;9.790;2022-07-06T04:35:18;101535.66;;;15.85;69.65
39891;BME280;25564;53.312;9.790;2022-07-06T04:37:50;101547.09;;;15.92;69.54
39891;BME280;25564;53.312;9.790;2022-07-06T04:40:21;101527.66;;;15.85;69.50
39891;BME280;25564;53.312;9.790;2022-07-06T04:42:52;101545.25;;;15.94;69.77
39891;BME280;25564;53.312;9.790;2022-07-06T04:45:24;101546.84;;;16.01;69.54
39891;BME280;25564;53.312;9.790;2022-07-06T04:47:55;101550.38;;;16.03;69.68
39891;BME280;25564;53.312;9.790;2022-07-06T04:50:26;101552.97;;;16.06;69.47
39891;BME280;25564;53.312;9.790;2022-07-06T04:52:58;101552.06;;;16.07;69.21
39891;BME280;25564;53.312;9.790;2022-07-06T04:55:29;101552.84;;;16.11;69.32
39891;BME280;25564;53.312;9.790;2022-07-06T04:58:01;101558.13;;;16.14;69.59
39891;BME280;25564;53.312;9.790;2022-07-06T05:00:32;101557.25;;;16.13;69.17
39891;BME280;25564;53.312;9.790;2022-07-06T05:03:03;101557.19;;;16.15;69.11
39891;BME280;25564;53.312;9.790;2022-07-06T05:05:35;101555.22;;;16.21;69.29
39891;BME280;25564;53.312;9.790;2022-07-06T05:08:06;101551.88;;;16.13;69.05
39891;BME280;25564;53.312;9.790;2022-07-06T05:10:37;101561.56;;;16.19;68.98
39891;BME280;25564;53.312;9.790;2022-07-06T05:13:09;101557.06;;;16.19;69.12
39891;BME280;25564;53.312;9.790;2022-07-06T05:15:40;101552.47;;;16.24;68.65
39891;BME280;25564;53.312;9.790;2022-07-06T05:18:11;101552.25;;;16.32;68.96
39891;BME280;25564;53.312;9.790;2022-07-06T05:20:43;101535.09;;;16.39;68.59
39891;BME280;25564;53.312;9.790;2022-07-06T05:23:15;101539.31;;;16.48;68.37
39891;BME280;25564;53.312;9.790;2022-07-06T05:25:46;101537.19;;;16.59;68.24
39891;BME280;25564;53.312;9.790;2022-07-06T05:28:18;101548.44;;;16.72;67.83
39891;BME280;25564;53.312;9.790;2022-07-06T05:30:49;101553.38;;;16.85;67.27
39891;BME280;25564;53.312;9.790;2022-07-06T05:33:20;101549.69;;;16.89;66.28
39891;BME280;25564;53.312;9.790;2022-07-06T05:35:52;101549.59;;;16.92;66.22
39891;BME280;25564;53.312;9.790;2022-07-06T05:38:23;101542.47;;;16.91;65.85
39891;BME280;25564;53.312;9.790;2022-07-06T05:40:55;101551.13;;;17.01;65.63
39891;BME280;25564;53.312;9.790;2022-07-06T05:43:27;101559.06;;;17.04;65.54
39891;BME280;25564;53.312;9.790;2022-07-06T05:45:58;101553.53;;;17.10;65.06
39891;BME280;25564;53.312;9.790;2022-07-06T05:48:29;101564.75;;;17.23;64.90
39891;BME280;25564;53.312;9.790;2022-07-06T05:51:19;101574.41;;;17.28;65.00
39891;BME280;25564;53.312;9.790;2022-07-06T05:53:51;101565.47;;;17.28;64.55
39891;BME280;25564;53.312;9.790;2022-07-06T05:56:22;101569.53;;;17.41;64.49
39891;BME280;25564;53.312;9.790;2022-07-06T05:58:54;101571.19;;;17.45;64.62
39891;BME280;25564;53.312;9.790;2022-07-06T06:01:25;101572.13;;;17.44;64.17
39891;BME280;25564;53.312;9.790;2022-07-06T06:03:56;101573.03;;;17.43;64.51
39891;BME280;25564;53.312;9.790;2022-07-06T06:06:28;101577.53;;;17.43;64.30
39891;BME280;25564;53.312;9.790;2022-07-06T06:09:02;101574.78;;;17.44;64.32
39891;BME280;25564;53.312;9.790;2022-07-06T06:11:33;101572.63;;;17.55;64.71
39891;BME280;25564;53.312;9.790;2022-07-06T06:14:05;101582.00;;;17.70;64.68
39891;BME280;25564;53.312;9.790;2022-07-06T06:16:36;101586.91;;;17.84;64.14
39891;BME280;25564;53.312;9.790;2022-07-06T06:19:08;101579.56;;;17.89;64.06
39891;BME280;25564;53.312;9.790;2022-07-06T06:21:40;101584.69;;;17.96;64.04
39891;BME280;25564;53.312;9.790;2022-07-06T06:24:11;101578.88;;;18.09;63.90
39891;BME280;25564;53.312;9.790;2022-07-06T06:26:42;101591.03;;;18.20;63.54
39891;BME280;25564;53.312;9.790;2022-07-06T06:29:14;101585.53;;;18.23;63.49
39891;BME280;25564;53.312;9.790;2022-07-06T06:31:45;101584.59;;;18.24;63.37
39891;BME280;25564;53.312;9.790;2022-07-06T06:34:17;101586.13;;;18.56;63.69
39891;BME280;25564;53.312;9.790;2022-07-06T06:36:48;101578.97;;;19.04;62.87
39891;BME280;25564;53.312;9.790;2022-07-06T06:39:19;101565.31;;;19.32;61.98
39891;BME280;25564;53.312;9.790;2022-07-06T06:41:51;101584.50;;;19.68;61.29
39891;BME280;25564;53.312;9.790;2022-07-06T06:44:22;101575.56;;;20.08;61.22
39891;BME280;25564;53.312;9.790;2022-07-06T06:46:54;101581.75;;;20.52;59.59
39891;BME280;25564;53.312;9.790;2022-07-06T06:49:25;101583.16;;;20.61;58.97
39891;BME280;25564;53.312;9.790;2022-07-06T06:51:57;101582.13;;;20.63;58.66
39891;BME280;25564;53.312;9.790;2022-07-06T06:54:48;101583.56;;;20.51;58.55
39891;BME280;25564;53.312;9.790;2022-07-06T06:57:19;101583.03;;;20.43;59.04
39891;BME280;25564;53.312;9.790;2022-07-06T06:59:51;101595.50;;;20.46;58.88
39891;BME280;25564;53.312;9.790;2022-07-06T07:02:22;101586.84;;;20.38;58.51
39891;BME280;25564;53.312;9.790;2022-07-06T07:04:53;101594.88;;;20.39;58.41
39891;BME280;25564;53.312;9.790;2022-07-06T07:07:25;101595.34;;;20.49;58.57
39891;BME280;25564;53.312;9.790;2022-07-06T07:09:56;101589.09;;;20.48;58.03
39891;BME280;25564;53.312;9.790;2022-07-06T07:12:28;101590.84;;;20.49;57.55
39891;BME280;25564;53.312;9.790;2022-07-06T07:15:00;101592.25;;;20.58;57.16
39891;BME280;25564;53.312;9.790;2022-07-06T07:17:31;101602.81;;;20.63;57.56
39891;BME280;25564;53.312;9.790;2022-07-06T07:20:04;101600.88;;;20.66;57.25
39891;BME280;25564;53.312;9.790;2022-07-06T07:22:35;101603.16;;;20.55;56.72
39891;BME280;25564;53.312;9.790;2022-07-06T07:25:07;101593.41;;;20.52;57.53
39891;BME280;25564;53.312;9.790;2022-07-06T07:27:38;101607.81;;;20.90;57.49
39891;BME280;25564;53.312;9.790;2022-07-06T07:30:10;101611.28;;;21.32;56.72
39891;BME280;25564;53.312;9.790;2022-07-06T07:32:43;101609.47;;;21.51;55.51
39891;BME280;25564;53.312;9.790;2022-07-06T07:35:14;101618.97;;;21.41;55.12
39891;BME280;25564;53.312;9.790;2022-07-06T07:37:47;101618.22;;;21.37;55.37
39891;BME280;25564;53.312;9.790;2022-07-06T07:40:24;101620.13;;;21.35;54.94
39891;BME280;25564;53.312;9.790;2022-07-06T07:42:56;101617.13;;;21.23;54.98
39891;BME280;25564;53.312;9.790;2022-07-06T07:45:27;101618.84;;;21.05;55.20
39891;BME280;25564;53.312;9.790;2022-07-06T07:47:59;101608.97;;;20.85;54.97
39891;BME280;25564;53.312;9.790;2022-07-06T07:50:30;101622.84;;;20.77;55.30
39891;BME280;25564;53.312;9.790;2022-07-06T07:53:01;101622.66;;;20.80;55.36
39891;BME280;25564;53.312;9.790;2022-07-06T07:55:33;101621.63;;;20.64;54.60
39891;BME280;25564;53.312;9.790;2022-07-06T07:58:13;101621.91;;;20.58;55.38
39891;BME280;25564;53.312;9.790;2022-07-06T08:00:44;101626.28;;;20.61;55.31
39891;BME280;25564;53.312;9.790;2022-07-06T08:03:17;101636.06;;;20.63;55.33
39891;BME280;25564;53.312;9.790;2022-07-06T08:05:48;101638.44;;;20.71;55.24
39891;BME280;25564;53.312;9.790;2022-07-06T08:08:20;101630.13;;;20.75;54.63
39891;BME280;25564;53.312;9.790;2022-07-06T08:10:51;101627.50;;;20.93;54.21
39891;BME280;25564;53.312;9.790;2022-07-06T08:13:43;101625.63;;;21.13;53.92
39891;BME280;25564;53.312;9.790;2022-07-06T08:16:15;101623.47;;;21.40;53.34
39891;BME280;25564;53.312;9.790;2022-07-06T08:18:46;101636.63;;;21.48;52.83
39891;BME280;25564;53.312;9.790;2022-07-06T08:21:17;101628.00;;;21.59;52.85
39891;BME280;25564;53.312;9.790;2022-07-06T08:23:55;101625.63;;;21.70;52.29
39891;BME280;25564;53.312;9.790;2022-07-06T08:26:27;101631.47;;;21.79;51.50
39891;BME280;25564;53.312;9.790;2022-07-06T08:28:59;101625.34;;;21.93;51.65
39891;BME280;25564;53.312;9.790;2022-07-06T08:31:30;101625.81;;;22.20;51.12
39891;BME280;25564;53.312;9.790;2022-07-06T08:34:22;101634.41;;;22.28;49.94
39891;BME280;25564;53.312;9.790;2022-07-06T08:36:54;101637.66;;;22.17;49.20
39891;BME280;25564;53.312;9.790;2022-07-06T08:39:25;101624.59;;;22.26;49.49
39891;BME280;25564;53.312;9.790;2022-07-06T08:41:57;101634.16;;;22.50;49.79
39891;BME280;25564;53.312;9.790;2022-07-06T08:44:29;101635.34;;;22.79;48.77
39891;BME280;25564;53.312;9.790;2022-07-06T08:47:04;101623.41;;;22.66;47.76
39891;BME280;25564;53.312;9.790;2022-07-06T08:49:36;101634.06;;;22.17;47.53
39891;BME280;25564;53.312;9.790;2022-07-06T08:52:08;101618.34;;;21.72;48.25
39891;BME280;25564;53.312;9.790;2022-07-06T08:54:39;101633.69;;;21.52;48.62
39891;BME280;25564;53.312;9.790;2022-07-06T08:57:11;101615.44;;;21.39;49.11
39891;BME280;25564;53.312;9.790;2022-07-06T08:59:43;101626.53;;;21.70;49.64
39891;BME280;25564;53.312;9.790;2022-07-06T09:02:14;101622.78;;;21.90;49.05
39891;BME280;25564;53.312;9.790;2022-07-06T09:04:46;101627.63;;;22.02;48.87
39891;BME280;25564;53.312;9.790;2022-07-06T09:07:18;101627.72;;;21.99;48.34
39891;BME280;25564;53.312;9.790;2022-07-06T09:10:10;101623.44;;;21.78;48.18
39891;BME280;25564;53.312;9.790;2022-07-06T09:12:42;101625.78;;;21.67;48.84
39891;BME280;25564;53.312;9.790;2022-07-06T09:15:14;101626.78;;;21.83;48.91
39891;BME280;25564;53.312;9.790;2022-07-06T09:17:46;101629.50;;;21.83;48.43
39891;BME280;25564;53.312;9.790;2022-07-06T09:20:17;101620.50;;;21.82;48.35
39891;BME280;25564;53.312;9.790;2022-07-06T09:22:49;101605.16;;;22.00;48.73
39891;BME280;25564;53.312;9.790;2022-07-06T09:25:20;101624.78;;;22.23;48.50
39891;BME280;25564;53.312;9.790;2022-07-06T09:27:52;101617.72;;;22.01;48.01
39891;BME280;25564;53.312;9.790;2022-07-06T09:30:28;101617.53;;;21.70;47.97
39891;BME280;25564;53.312;9.790;2022-07-06T09:33:00;101625.97;;;21.26;48.01
39891;BME280;25564;53.312;9.790;2022-07-06T09:35:37;101625.75;;;20.92;48.93
39891;BME280;25564;53.312;9.790;2022-07-06T09:38:13;101631.69;;;20.61;49.31
39891;BME280;25564;53.312;9.790;2022-07-06T09:40:45;101631.84;;;20.36;49.98
39891;BME280;25564;53.312;9.790;2022-07-06T09:43:21;101636.94;;;20.01;50.37
39891;BME280;25564;53.312;9.790;2022-07-06T09:45:55;101640.13;;;19.69;50.92
39891;BME280;25564;53.312;9.790;2022-07-06T09:48:27;101636.03;;;19.35;51.44
39891;BME280;25564;53.312;9.790;2022-07-06T09:51:01;101635.47;;;19.04;52.09
39891;BME280;25564;53.312;9.790;2022-07-06T09:53:37;101645.44;;;18.77;53.12
39891;BME280;25564;53.312;9.790;2022-07-06T09:56:09;101633.38;;;18.39;53.79
39891;BME280;25564;53.312;9.790;2022-07-06T09:58:40;101638.41;;;18.23;54.27
39891;BME280;25564;53.312;9.790;2022-07-06T10:01:31;101656.22;;;18.25;54.52
39891;BME280;25564;53.312;9.790;2022-07-06T10:04:05;101648.38;;;18.19;55.37
39891;BME280;25564;53.312;9.790;2022-07-06T10:06:36;101658.84;;;18.27;55.48
39891;BME280;25564;53.312;9.790;2022-07-06T10:09:09;101650.63;;;18.32;56.02
39891;BME280;25564;53.312;9.790;2022-07-06T10:11:48;101647.41;;;18.47;56.02
39891;BME280;25564;53.312;9.790;2022-07-06T10:14:22;101653.22;;;18.61;56.08
39891;BME280;25564;53.312;9.790;2022-07-06T10:16:55;101648.88;;;18.80;55.94
39891;BME280;25564;53.312;9.790;2022-07-06T10:19:30;101647.22;;;19.01;55.80
39891;BME280;25564;53.312;9.790;2022-07-06T10:22:02;101643.66;;;19.24;55.29
39891;BME280;25564;53.312;9.790;2022-07-06T10:24:35;101640.81;;;19.50;55.51
39891;BME280;25564;53.312;9.790;2022-07-06T10:27:14;101644.84;;;19.84;54.66
39891;BME280;25564;53.312;9.790;2022-07-06T10:29:46;101653.22;;;20.20;54.72
39891;BME280;25564;53.312;9.790;2022-07-06T10:32:19;101644.03;;;20.66;53.65
39891;BME280;25564;53.312;9.790;2022-07-06T10:34:52;101637.28;;;20.95;52.55
39891;BME280;25564;53.312;9.790;2022-07-06T10:37:24;101639.06;;;21.15;52.60
39891;BME280;25564;53.312;9.790;2022-07-06T10:39:56;101640.13;;;21.31;51.85
39891;BME280;25564;53.312;9.790;2022-07-06T10:42:47;101631.28;;;21.46;50.99
39891;BME280;25564;53.312;9.790;2022-07-06T10:50:54;101618.34;;;21.89;50.59
39891;BME280;25564;53.312;9.790;2022-07-06T10:53:28;101618.25;;;22.27;50.78
39891;BME280;25564;53.312;9.790;2022-07-06T10:56:04;101619.47;;;22.71;50.41
39891;BME280;25564;53.312;9.790;2022-07-06T11:01:19;101627.19;;;23.12;48.74
39891;BME280;25564;53.312;9.790;2022-07-06T11:06:32;101620.00;;;22.28;47.74
39891;BME280;25564;53.312;9.790;2022-07-06T11:09:08;101630.50;;;21.80;48.05
39891;BME280;25564;53.312;9.790;2022-07-06T11:11:42;101619.69;;;21.44;48.25
39891;BME280;25564;53.312;9.790;2022-07-06T11:14:21;101622.50;;;21.04;49.00
39891;BME280;25564;53.312;9.790;2022-07-06T11:19:24;101623.88;;;20.54;49.66
39891;BME280;25564;53.312;9.790;2022-07-06T11:21:59;101628.94;;;20.42;49.98
39891;BME280;25564;53.312;9.790;2022-07-06T11:24:38;101624.84;;;20.32;49.94
39891;BME280;25564;53.312;9.790;2022-07-06T11:27:09;101639.13;;;20.13;50.69
39891;BME280;25564;53.312;9.790;2022-07-06T11:29:41;101640.56;;;20.00;50.91
39891;BME280;25564;53.312;9.790;2022-07-06T11:32:12;101638.56;;;20.05;51.69
39891;BME280;25564;53.312;9.790;2022-07-06T11:34:45;101639.78;;;20.18;51.41
39891;BME280;25564;53.312;9.790;2022-07-06T11:37:17;101629.38;;;20.31;51.27
39891;BME280;25564;53.312;9.790;2022-07-06T11:39:49;101622.38;;;20.47;51.62
39891;BME280;25564;53.312;9.790;2022-07-06T11:42:20;101621.91;;;20.58;51.13
39891;BME280;25564;53.312;9.790;2022-07-06T11:44:53;101604.97;;;20.75;51.52
39891;BME280;25564;53.312;9.790;2022-07-06T11:47:30;101609.75;;;21.26;51.69
39891;BME280;25564;53.312;9.790;2022-07-06T11:50:01;101611.59;;;21.80;50.76
39891;BME280;25564;53.312;9.790;2022-07-06T11:52:33;101608.53;;;22.23;50.14
39891;BME280;25564;53.312;9.790;2022-07-06T11:55:05;101603.63;;;22.31;49.64
39891;BME280;25564;53.312;9.790;2022-07-06T11:57:38;101601.59;;;22.51;49.79
39891;BME280;25564;53.312;9.790;2022-07-06T12:00:10;101598.88;;;22.69;49.60
39891;BME280;25564;53.312;9.790;2022-07-06T12:02:58;101602.03;;;22.77;48.73
39891;BME280;25564;53.312;9.790;2022-07-06T12:05:31;101599.91;;;22.83;48.83
39891;BME280;25564;53.312;9.790;2022-07-06T12:08:06;101575.81;;;22.79;48.32
39891;BME280;25564;53.312;9.790;2022-07-06T12:10:37;101596.41;;;22.81;48.11
39891;BME280;25564;53.312;9.790;2022-07-06T12:13:09;101595.91;;;22.73;47.92
39891;BME280;25564;53.312;9.790;2022-07-06T12:15:40;101586.72;;;22.60;48.13
39891;BME280;25564;53.312;9.790;2022-07-06T12:18:12;101580.44;;;22.60;48.23
39891;BME280;25564;53.312;9.790;2022-07-06T12:20:43;101587.06;;;23.03;47.54
39891;BME280;25564;53.312;9.790;2022-07-06T12:23:14;101584.38;;;23.19;46.76
39891;BME280;25564;53.312;9.790;2022-07-06T12:25:46;101573.91;;;23.28;46.41
39891;BME280;25564;53.312;9.790;2022-07-06T12:28:24;101575.84;;;23.26;46.40
39891;BME280;25564;53.312;9.790;2022-07-06T12:30:55;101573.63;;;23.48;46.56
39891;BME280;25564;53.312;9.790;2022-07-06T12:33:27;101565.88;;;23.74;46.40
39891;BME280;25564;53.312;9.790;2022-07-06T12:36:10;101560.69;;;23.85;45.18
39891;BME280;25564;53.312;9.790;2022-07-06T12:38:47;101563.88;;;23.62;45.41
39891;BME280;25564;53.312;9.790;2022-07-06T12:41:33;101557.84;;;23.25;45.85
39891;BME280;25564;53.312;9.790;2022-07-06T12:44:07;101566.66;;;23.13;46.12
39891;BME280;25564;53.312;9.790;2022-07-06T12:46:40;101555.72;;;23.30;46.61
39891;BME280;25564;53.312;9.790;2022-07-06T12:49:16;101560.47;;;23.58;46.22
39891;BME280;25564;53.312;9.790;2022-07-06T12:52:30;101551.53;;;23.72;46.10
39891;BME280;25564;53.312;9.790;2022-07-06T12:54:48;101565.81;;;23.90;45.32
39891;BME280;25564;53.312;9.790;2022-07-06T12:57:23;101551.78;;;23.52;45.37
39891;BME280;25564;53.312;9.790;2022-07-06T12:59:57;101562.03;;;23.31;45.42
39891;BME280;25564;53.312;9.790;2022-07-06T13:02:35;101561.31;;;23.27;44.56
39891;BME280;25564;53.312;9.790;2022-07-06T13:05:28;101559.41;;;23.13;44.59
39891;BME280;25564;53.312;9.790;2022-07-06T13:07:59;101555.81;;;23.13;44.19
39891;BME280;25564;53.312;9.790;2022-07-06T13:10:33;101554.31;;;22.92;43.78
39891;BME280;25564;53.312;9.790;2022-07-06T13:13:08;101529.28;;;22.55;43.94
39891;BME280;25564;53.312;9.790;2022-07-06T13:15:41;101550.38;;;22.48;44.29
39891;BME280;25564;53.312;9.790;2022-07-06T13:18:14;101551.41;;;22.46;44.21
39891;BME280;25564;53.312;9.790;2022-07-06T13:20:45;101558.50;;;22.31;44.83
39891;BME280;25564;53.312;9.790;2022-07-06T13:23:16;101551.28;;;22.14;44.40
39891;BME280;25564;53.312;9.790;2022-07-06T13:25:48;101560.25;;;21.98;44.84
39891;BME280;25564;53.312;9.790;2022-07-06T13:28:19;101569.25;;;21.81;45.15
39891;BME280;25564;53.312;9.790;2022-07-06T13:30:51;101563.88;;;21.62;45.25
39891;BME280;25564;53.312;9.790;2022-07-06T13:33:22;101558.13;;;21.51;45.67